createdAt,value
2023-05-23T00:00:52.078Z,16.20
2023-05-23T00:03:22.869Z,16.67
2023-05-23T00:05:51.376Z,17.40
2023-05-23T00:08:19.993Z,16.53
2023-05-23T00:10:48.094Z,16.77
2023-05-23T00:13:16.276Z,17.33
2023-05-23T00:15:44.602Z,18.07
2023-05-23T00:18:14.064Z,17.73
2023-05-23T00:20:43.011Z,16.60
2023-05-23T00:23:13.807Z,16.30
2023-05-23T00:25:42.185Z,17.07
2023-05-23T00:28:10.433Z,17.00
2023-05-23T00:30:38.517Z,16.50
2023-05-23T00:33:06.671Z,16.80
2023-05-23T00:35:36.509Z,17.00
2023-05-23T00:38:04.668Z,17.93
2023-05-23T00:40:32.750Z,17.37
2023-05-23T00:43:01.296Z,18.20
2023-05-23T00:45:29.398Z,16.90
2023-05-23T00:47:59.257Z,16.30
2023-05-23T00:50:29.563Z,17.17
2023-05-23T00:53:01.612Z,17.27
2023-05-23T00:55:31.343Z,16.53
2023-05-23T00:57:59.755Z,16.10
2023-05-23T01:00:28.201Z,17.20
2023-05-23T01:02:56.580Z,16.93
2023-05-23T01:05:25.129Z,17.80
2023-05-23T01:07:53.746Z,16.47
2023-05-23T01:10:27.839Z,17.50
2023-05-23T01:13:11.236Z,16.60
2023-05-23T01:15:43.693Z,16.73
2023-05-23T01:18:17.751Z,18.40
2023-05-23T01:20:54.062Z,16.87
2023-05-23T01:23:55.765Z,18.13
2023-05-23T01:26:36.108Z,16.97
2023-05-23T01:29:12.151Z,16.80
2023-05-23T01:31:44.247Z,16.63
2023-05-23T01:34:13.952Z,16.70
2023-05-23T01:36:43.419Z,17.20
2023-05-23T01:39:12.034Z,17.50
2023-05-23T01:41:40.200Z,15.90
2023-05-23T01:44:10.093Z,17.30
2023-05-23T01:46:39.974Z,18.07
2023-05-23T01:49:12.871Z,17.37
2023-05-23T01:51:42.018Z,16.40
2023-05-23T01:54:10.726Z,16.47
2023-05-23T01:56:39.025Z,16.70
2023-05-23T01:59:07.146Z,17.53
2023-05-23T02:01:37.160Z,17.13
2023-05-23T02:04:05.441Z,17.40
2023-05-23T02:06:33.570Z,18.73
2023-05-23T02:09:01.669Z,16.60
2023-05-23T02:11:29.768Z,17.93
2023-05-23T02:13:57.842Z,17.13
2023-05-23T02:16:26.948Z,18.67
2023-05-23T02:18:57.097Z,17.57
2023-05-23T02:21:25.481Z,17.77
2023-05-23T02:23:53.565Z,17.00
2023-05-23T02:26:21.736Z,17.53
2023-05-23T02:28:49.857Z,17.33
2023-05-23T02:31:18.220Z,19.67
2023-05-23T02:33:46.387Z,17.53
2023-05-23T02:36:15.972Z,16.97
2023-05-23T02:38:44.078Z,16.63
2023-05-23T02:41:12.230Z,17.33
2023-05-23T02:43:40.409Z,16.30
2023-05-23T02:46:08.598Z,18.00
2023-05-23T02:48:36.789Z,17.70
2023-05-23T02:51:05.303Z,18.10
2023-05-23T02:53:34.773Z,17.43
2023-05-23T02:56:02.983Z,17.07
2023-05-23T02:58:31.918Z,17.10
2023-05-23T03:01:00.013Z,19.00
2023-05-23T03:03:28.801Z,17.70
2023-05-23T03:05:57.603Z,18.90
2023-05-23T03:08:25.967Z,17.83
2023-05-23T03:10:55.425Z,17.70
2023-05-23T03:13:23.685Z,16.13
2023-05-23T03:15:51.802Z,18.53
2023-05-23T03:18:19.935Z,16.97
2023-05-23T03:20:48.122Z,18.60
2023-05-23T03:23:16.477Z,18.27
2023-05-23T03:25:44.792Z,18.20
2023-05-23T03:28:14.250Z,17.83
2023-05-23T03:30:42.466Z,18.03
2023-05-23T03:33:11.197Z,19.10
2023-05-23T03:35:39.454Z,18.47
2023-05-23T03:38:07.758Z,18.03
2023-05-23T03:40:35.844Z,17.77
2023-05-23T03:43:05.303Z,17.47
2023-05-23T03:45:35.254Z,18.23
2023-05-23T03:48:03.581Z,18.63
2023-05-23T03:50:31.840Z,17.50
2023-05-23T03:52:59.900Z,17.00
2023-05-23T03:55:28.017Z,18.43
2023-05-23T03:57:56.093Z,17.70
2023-05-23T04:00:24.311Z,19.00
2023-05-23T04:02:53.895Z,17.30
2023-05-23T04:05:22.015Z,16.90
2023-05-23T04:07:51.607Z,18.63
2023-05-23T04:10:19.706Z,18.37
2023-05-23T04:12:47.991Z,17.93
2023-05-23T04:15:17.976Z,17.17
2023-05-23T04:17:46.118Z,18.50
2023-05-23T04:20:15.673Z,17.77
2023-05-23T04:22:43.803Z,18.90
2023-05-23T04:25:12.503Z,17.20
2023-05-23T04:27:41.231Z,17.33
2023-05-23T04:30:10.342Z,17.53
2023-05-23T04:32:38.577Z,16.87
2023-05-23T04:35:07.402Z,17.50
2023-05-23T04:37:37.862Z,16.53
2023-05-23T04:40:07.241Z,17.90
2023-05-23T04:42:36.121Z,18.70
2023-05-23T04:45:04.597Z,17.03
2023-05-23T04:47:37.073Z,18.07
2023-05-23T04:50:05.850Z,17.50
2023-05-23T04:52:34.415Z,16.30
2023-05-23T04:55:04.726Z,17.33
2023-05-23T04:57:32.921Z,16.50
2023-05-23T05:00:01.208Z,16.10
2023-05-23T05:02:33.863Z,17.57
2023-05-23T05:05:02.088Z,16.73
2023-05-23T05:07:30.388Z,18.00
2023-05-23T05:10:00.893Z,15.80
2023-05-23T05:12:30.749Z,16.27
2023-05-23T05:14:58.862Z,18.00
2023-05-23T05:17:27.117Z,16.10
2023-05-23T05:19:55.230Z,16.33
2023-05-23T05:22:23.324Z,16.30
2023-05-23T05:24:51.411Z,17.30
2023-05-23T05:27:19.619Z,18.30
2023-05-23T05:29:51.263Z,15.37
2023-05-23T05:32:19.482Z,16.07
2023-05-23T05:34:49.518Z,17.97
2023-05-23T05:37:17.934Z,17.13
2023-05-23T05:39:46.058Z,17.10
2023-05-23T05:42:14.149Z,16.30
2023-05-23T05:44:42.348Z,16.03
2023-05-23T05:47:11.850Z,14.67
2023-05-23T05:49:39.974Z,16.23
2023-05-23T05:52:08.586Z,16.90
2023-05-23T05:54:37.693Z,16.10
2023-05-23T05:57:06.260Z,17.73
2023-05-23T05:59:34.358Z,16.30
2023-05-23T06:02:02.443Z,16.57
2023-05-23T06:04:32.491Z,17.10
2023-05-23T06:07:00.592Z,14.93
2023-05-23T06:09:28.745Z,16.50
2023-05-23T06:11:56.822Z,15.60
2023-05-23T06:14:24.900Z,16.40
2023-05-23T06:16:53.471Z,17.97
2023-05-23T06:19:21.553Z,15.40
2023-05-23T06:21:52.066Z,15.20
2023-05-23T06:24:20.380Z,17.07
2023-05-23T06:26:48.454Z,15.90
2023-05-23T06:29:16.564Z,16.00
2023-05-23T06:31:44.676Z,16.33
2023-05-23T06:34:12.773Z,15.93
2023-05-23T06:36:42.121Z,14.80
2023-05-23T06:39:11.605Z,14.23
2023-05-23T06:41:40.575Z,14.10
2023-05-23T06:44:08.692Z,14.80
2023-05-23T06:46:39.678Z,14.47
2023-05-23T06:49:14.865Z,15.37
2023-05-23T06:51:43.501Z,14.50
2023-05-23T06:54:13.038Z,14.50
2023-05-23T06:56:41.147Z,14.80
2023-05-23T06:59:09.367Z,16.10
2023-05-23T07:01:37.660Z,14.40
2023-05-23T07:04:05.911Z,13.97
2023-05-23T07:06:35.770Z,14.23
2023-05-23T07:09:04.967Z,15.17
2023-05-23T07:11:35.459Z,13.40
2023-05-23T07:14:03.612Z,15.93
2023-05-23T07:16:31.720Z,14.10
2023-05-23T07:18:59.918Z,14.77
2023-05-23T07:21:28.004Z,15.30
2023-05-23T07:23:56.401Z,14.30
2023-05-23T07:26:24.646Z,15.23
2023-05-23T07:28:54.309Z,13.47
2023-05-23T07:31:22.488Z,16.07
2023-05-23T07:33:50.686Z,15.17
2023-05-23T07:36:23.730Z,14.17
2023-05-23T07:38:53.264Z,16.63
2023-05-23T07:41:22.129Z,14.80
2023-05-23T07:43:50.221Z,16.10
2023-05-23T07:46:20.046Z,18.27
2023-05-23T07:48:48.270Z,16.90
2023-05-23T07:51:21.387Z,17.30
2023-05-23T07:53:49.644Z,15.83
2023-05-23T07:56:17.796Z,16.23
2023-05-23T07:58:45.867Z,16.80
2023-05-23T08:01:14.011Z,16.27
2023-05-23T08:03:43.560Z,16.33
2023-05-23T08:06:11.669Z,15.90
2023-05-23T08:08:39.822Z,17.50
2023-05-23T08:11:07.914Z,17.50
2023-05-23T08:13:36.092Z,18.47
2023-05-23T08:16:04.253Z,17.40
2023-05-23T08:18:32.463Z,18.10
2023-05-23T08:21:03.124Z,17.60
2023-05-23T08:23:31.272Z,17.80
2023-05-23T08:25:59.426Z,16.43
2023-05-23T08:28:27.509Z,18.00
2023-05-23T08:30:57.181Z,17.97
2023-05-23T08:33:25.265Z,15.77
2023-05-23T08:35:53.390Z,15.40
2023-05-23T08:38:23.082Z,15.00
2023-05-23T08:40:52.590Z,15.43
2023-05-23T08:43:21.239Z,15.93
2023-05-23T08:45:52.774Z,15.40
2023-05-23T08:48:22.234Z,15.97
2023-05-23T08:50:51.971Z,16.30
2023-05-23T08:53:24.352Z,17.00
2023-05-23T08:55:54.527Z,16.73
2023-05-23T08:58:24.812Z,15.27
2023-05-23T09:00:54.278Z,19.10
2023-05-23T09:03:22.514Z,16.73
2023-05-23T09:05:51.672Z,16.30
2023-05-23T09:08:20.369Z,18.20
2023-05-23T09:10:50.935Z,16.63
2023-05-23T09:13:20.455Z,17.80
2023-05-23T09:16:00.002Z,18.20
2023-05-23T09:18:28.311Z,16.50
2023-05-23T09:20:56.425Z,19.70
2023-05-23T09:23:24.565Z,19.40
2023-05-23T09:25:54.316Z,17.57
2023-05-23T09:28:22.412Z,18.20
2023-05-23T09:30:58.629Z,17.53
2023-05-23T09:33:34.574Z,18.80
2023-05-23T09:36:02.728Z,17.27
2023-05-23T09:38:30.999Z,18.43
2023-05-23T09:41:00.914Z,17.13
2023-05-23T09:43:30.374Z,15.43
2023-05-23T09:46:02.701Z,14.60
2023-05-23T09:48:32.248Z,14.20
2023-05-23T09:51:02.884Z,14.20
2023-05-23T09:53:31.750Z,13.80
2023-05-23T09:56:04.285Z,13.40
2023-05-23T09:58:34.231Z,12.97
2023-05-23T10:01:04.251Z,14.57
2023-05-23T10:03:35.680Z,13.20
2023-05-23T10:06:09.397Z,13.17
2023-05-23T10:08:40.334Z,10.10
2023-05-23T10:11:50.878Z,10.03
2023-05-23T10:14:20.557Z,10.77
2023-05-23T10:17:00.363Z,10.47
2023-05-23T10:19:37.062Z,9.37
2023-05-23T10:22:09.585Z,9.80
2023-05-23T10:24:38.894Z,7.23
2023-05-23T10:27:08.591Z,7.43
2023-05-23T10:29:38.713Z,8.10
2023-05-23T10:32:08.203Z,11.70
2023-05-23T10:34:42.892Z,10.50
2023-05-23T10:37:16.097Z,11.23
2023-05-23T10:39:56.118Z,11.00
2023-05-23T10:42:34.797Z,13.40
2023-05-23T10:45:18.980Z,13.63
2023-05-23T10:47:48.875Z,13.70
2023-05-23T10:50:30.956Z,12.77
2023-05-23T10:52:59.074Z,13.07
2023-05-23T10:55:28.139Z,11.87
2023-05-23T10:58:12.840Z,12.77
2023-05-23T11:00:52.361Z,11.20
2023-05-23T11:03:20.995Z,11.50
2023-05-23T11:05:54.130Z,11.93
2023-05-23T11:08:32.412Z,10.40
2023-05-23T11:11:07.610Z,10.73
2023-05-23T11:14:02.543Z,11.47
2023-05-23T11:16:33.774Z,9.73
2023-05-23T11:19:26.128Z,10.03
2023-05-23T11:21:55.953Z,9.97
2023-05-23T11:24:24.856Z,10.67
2023-05-23T11:26:54.841Z,10.40
2023-05-23T11:29:23.263Z,9.97
2023-05-23T11:31:52.818Z,10.13
2023-05-23T11:34:21.722Z,43.37
2023-05-23T11:36:54.982Z,59.73
2023-05-23T11:39:23.159Z,13.60
2023-05-23T11:42:01.287Z,11.40
2023-05-23T11:44:29.621Z,10.07
2023-05-23T11:47:03.060Z,9.63
2023-05-23T11:49:32.110Z,10.50
2023-05-23T11:52:00.739Z,10.43
2023-05-23T11:54:29.098Z,10.33
2023-05-23T11:56:57.653Z,10.20
2023-05-23T11:59:27.342Z,9.23
2023-05-23T12:01:55.836Z,8.87
2023-05-23T12:04:26.865Z,10.37
2023-05-23T12:06:54.998Z,9.23
2023-05-23T12:09:23.105Z,9.17
2023-05-23T12:11:51.348Z,10.00
2023-05-23T12:14:20.186Z,9.33
2023-05-23T12:16:48.588Z,9.33
2023-05-23T12:19:18.843Z,8.70
2023-05-23T12:21:50.138Z,9.07
2023-05-23T12:24:20.129Z,9.10
2023-05-23T12:26:52.552Z,9.70
2023-05-23T12:29:22.331Z,8.93
2023-05-23T12:31:52.452Z,9.37
2023-05-23T12:34:23.486Z,9.47
2023-05-23T12:37:10.399Z,11.00
2023-05-23T12:39:45.581Z,8.90
2023-05-23T12:42:13.783Z,8.50
2023-05-23T12:44:43.642Z,9.53
2023-05-23T12:47:11.935Z,10.07
2023-05-23T12:49:40.199Z,9.53
2023-05-23T12:52:11.018Z,9.57
2023-05-23T12:54:39.128Z,10.83
2023-05-23T12:57:07.331Z,9.33
2023-05-23T12:59:35.410Z,9.53
2023-05-23T13:02:03.556Z,10.87
2023-05-23T13:04:32.538Z,10.00
2023-05-23T13:07:01.029Z,10.80
2023-05-23T13:09:30.502Z,10.03
2023-05-23T13:11:58.887Z,8.87
2023-05-23T13:14:27.282Z,10.73
2023-05-23T13:16:55.528Z,10.60
2023-05-23T13:19:23.660Z,10.07
2023-05-23T13:21:51.911Z,10.23
2023-05-23T13:24:20.038Z,10.80
2023-05-23T13:26:49.595Z,11.27
2023-05-23T13:29:17.689Z,10.33
2023-05-23T13:31:45.885Z,10.67
2023-05-23T13:34:14.942Z,10.87
2023-05-23T13:36:43.062Z,11.30
2023-05-23T13:39:11.587Z,10.10
2023-05-23T13:41:39.732Z,10.47
2023-05-23T13:44:09.226Z,10.57
2023-05-23T13:46:37.357Z,9.70
2023-05-23T13:49:05.448Z,10.20
2023-05-23T13:51:33.836Z,9.23
2023-05-23T13:54:01.962Z,9.70
2023-05-23T13:56:30.183Z,10.03
2023-05-23T13:58:58.281Z,10.10
2023-05-23T14:01:28.422Z,9.83
2023-05-23T14:03:56.886Z,9.70
2023-05-23T14:06:24.990Z,9.50
2023-05-23T14:08:53.096Z,9.90
2023-05-23T14:11:21.179Z,9.90
2023-05-23T14:13:49.261Z,9.47
2023-05-23T14:16:17.368Z,9.90
2023-05-23T14:18:46.904Z,9.90
2023-05-23T14:21:15.007Z,10.43
2023-05-23T14:23:43.137Z,9.13
2023-05-23T14:26:11.279Z,8.33
2023-05-23T14:28:39.398Z,8.77
2023-05-23T14:31:07.513Z,8.00
2023-05-23T14:33:35.999Z,8.83
2023-05-23T14:36:06.410Z,9.33
2023-05-23T14:38:34.523Z,9.40
2023-05-23T14:41:02.644Z,9.83
2023-05-23T14:43:30.912Z,9.47
2023-05-23T14:45:59.145Z,9.80
2023-05-23T14:48:27.403Z,9.30
2023-05-23T14:50:55.628Z,8.87
2023-05-23T14:53:25.083Z,8.90
2023-05-23T14:55:53.171Z,9.70
2023-05-23T14:58:22.320Z,9.47
2023-05-23T15:00:50.583Z,9.30
2023-05-23T15:03:19.041Z,8.87
2023-05-23T15:05:49.009Z,9.57
2023-05-23T15:08:18.164Z,7.87
2023-05-23T15:10:47.709Z,8.63
2023-05-23T15:13:15.795Z,8.73
2023-05-23T15:15:44.038Z,8.43
2023-05-23T15:18:21.346Z,8.73
2023-05-23T15:20:56.312Z,8.57
2023-05-23T15:23:24.408Z,8.87
2023-05-23T15:25:54.012Z,9.40
2023-05-23T15:28:22.322Z,8.57
2023-05-23T15:30:50.608Z,8.50
2023-05-23T15:33:18.901Z,8.60
2023-05-23T15:35:47.078Z,9.17
2023-05-23T15:38:17.161Z,8.53
2023-05-23T15:40:48.949Z,8.30
2023-05-23T15:43:18.577Z,8.63
2023-05-23T15:45:46.741Z,8.67
2023-05-23T15:48:14.936Z,9.10
2023-05-23T15:50:43.927Z,7.53
2023-05-23T15:53:12.361Z,8.63
2023-05-23T15:55:42.342Z,9.23
2023-05-23T15:58:11.290Z,8.20
2023-05-23T16:00:41.323Z,9.40
2023-05-23T16:03:09.715Z,8.70
2023-05-23T16:05:37.849Z,8.97
2023-05-23T16:08:06.142Z,8.50
2023-05-23T16:10:34.197Z,8.30
2023-05-23T16:13:02.286Z,8.63
2023-05-23T16:15:30.463Z,8.20
2023-05-23T16:18:00.013Z,9.00
2023-05-23T16:20:28.220Z,8.37
2023-05-23T16:22:56.351Z,8.17
2023-05-23T16:25:24.467Z,9.27
2023-05-23T16:27:52.538Z,8.40
2023-05-23T16:30:20.788Z,8.73
2023-05-23T16:32:48.958Z,8.90
2023-05-23T16:35:18.545Z,8.07
2023-05-23T16:37:46.641Z,8.70
2023-05-23T16:40:14.859Z,8.90
2023-05-23T16:42:43.010Z,9.10
2023-05-23T16:45:11.474Z,9.40
2023-05-23T16:47:39.684Z,9.90
2023-05-23T16:50:09.156Z,8.13
2023-05-23T16:52:39.603Z,8.60
2023-05-23T16:55:08.423Z,8.90
2023-05-23T16:57:36.556Z,8.90
2023-05-23T17:00:05.733Z,8.73
2023-05-23T17:02:33.979Z,8.30
2023-05-23T17:05:02.120Z,8.13
2023-05-23T17:07:30.220Z,8.80
2023-05-23T17:09:59.667Z,8.60
2023-05-23T17:12:27.790Z,8.70
2023-05-23T17:14:56.173Z,8.17
2023-05-23T17:17:24.523Z,8.00
2023-05-23T17:19:52.627Z,8.50
2023-05-23T17:22:21.526Z,8.63
2023-05-23T17:24:49.666Z,8.30
2023-05-23T17:27:19.406Z,9.20
2023-05-23T17:29:47.495Z,8.30
2023-05-23T17:32:15.713Z,8.37
2023-05-23T17:34:44.232Z,8.33
2023-05-23T17:37:12.614Z,9.43
2023-05-23T17:39:40.684Z,8.50
2023-05-23T17:42:08.782Z,8.87
2023-05-23T17:44:38.263Z,8.70
2023-05-23T17:47:07.118Z,8.73
2023-05-23T17:49:35.954Z,7.67
2023-05-23T17:52:05.785Z,7.50
2023-05-23T17:54:33.901Z,8.30
2023-05-23T17:57:01.989Z,8.40
2023-05-23T17:59:30.118Z,8.00
2023-05-23T18:01:59.776Z,9.43
2023-05-23T18:04:27.904Z,9.30
2023-05-23T18:06:56.038Z,8.37
2023-05-23T18:09:24.124Z,9.00
2023-05-23T18:11:52.349Z,9.10
2023-05-23T18:14:20.460Z,8.17
2023-05-23T18:16:48.641Z,8.60
2023-05-23T18:19:18.150Z,8.30
2023-05-23T18:21:46.500Z,7.63
2023-05-23T18:24:14.639Z,9.20
2023-05-23T18:26:43.323Z,8.50
2023-05-23T18:29:11.685Z,9.20
2023-05-23T18:31:39.803Z,8.40
2023-05-23T18:34:08.023Z,8.90
2023-05-23T18:36:37.819Z,9.20
2023-05-23T18:39:05.919Z,9.10
2023-05-23T18:41:34.076Z,9.03
2023-05-23T18:44:05.010Z,8.10
2023-05-23T18:46:33.142Z,8.50
2023-05-23T18:49:01.282Z,9.20
2023-05-23T18:51:29.514Z,8.70
2023-05-23T18:53:59.552Z,9.77
2023-05-23T18:56:27.687Z,10.00
2023-05-23T18:58:56.020Z,8.67
2023-05-23T19:01:24.174Z,9.90
2023-05-23T19:03:52.533Z,10.70
2023-05-23T19:06:20.700Z,10.23
2023-05-23T19:08:48.833Z,11.00
2023-05-23T19:11:18.332Z,11.60
2023-05-23T19:13:46.428Z,10.33
2023-05-23T19:16:14.725Z,10.67
2023-05-23T19:18:42.824Z,9.70
2023-05-23T19:21:11.037Z,11.90
2023-05-23T19:23:39.469Z,11.70
2023-05-23T19:26:07.714Z,10.57
2023-05-23T19:28:37.155Z,11.30
2023-05-23T19:31:05.288Z,11.07
2023-05-23T19:33:33.383Z,11.30
2023-05-23T19:36:01.538Z,11.20
2023-05-23T19:38:29.784Z,10.27
2023-05-23T19:40:57.992Z,11.17
2023-05-23T19:43:26.756Z,11.20
2023-05-23T19:45:56.443Z,11.40
2023-05-23T19:48:24.657Z,10.53
2023-05-23T19:50:52.742Z,10.17
2023-05-23T19:53:22.452Z,9.77
2023-05-23T19:55:50.794Z,9.83
2023-05-23T19:58:19.527Z,10.23
2023-05-23T20:00:47.621Z,10.20
2023-05-23T20:03:17.304Z,9.60
2023-05-23T20:05:45.990Z,10.60
2023-05-23T20:08:14.145Z,10.73
2023-05-23T20:10:43.222Z,9.53
2023-05-23T20:13:12.359Z,10.27
2023-05-23T20:15:40.820Z,10.20
2023-05-23T20:18:09.187Z,9.90
2023-05-23T20:20:38.707Z,9.50
2023-05-23T20:23:07.489Z,10.87
2023-05-23T20:25:35.696Z,9.23
2023-05-23T20:28:03.867Z,9.87
2023-05-23T20:30:32.139Z,10.00
2023-05-23T20:33:00.337Z,9.67
2023-05-23T20:35:28.617Z,9.93
2023-05-23T20:37:58.605Z,9.47
2023-05-23T20:40:29.563Z,9.30
2023-05-23T20:43:00.665Z,8.93
2023-05-23T20:45:28.958Z,8.87
2023-05-23T20:47:57.314Z,9.10
2023-05-23T20:50:25.464Z,8.73
2023-05-23T20:52:53.959Z,8.30
2023-05-23T20:55:23.471Z,8.73
2023-05-23T20:57:51.973Z,8.87
2023-05-23T21:00:21.562Z,9.13
2023-05-23T21:02:50.141Z,9.70
2023-05-23T21:05:18.402Z,9.23
2023-05-23T21:07:47.138Z,8.43
2023-05-23T21:10:15.272Z,9.30
2023-05-23T21:12:49.319Z,10.10
2023-05-23T21:15:17.607Z,9.70
2023-05-23T21:17:46.341Z,8.63
2023-05-23T21:20:14.653Z,9.77
2023-05-23T21:22:42.962Z,8.93
2023-05-23T21:25:11.420Z,9.43
2023-05-23T21:27:39.490Z,9.80
2023-05-23T21:30:10.531Z,10.67
2023-05-23T21:32:38.710Z,8.90
2023-05-23T21:35:07.650Z,10.43
2023-05-23T21:37:35.767Z,9.37
2023-05-23T21:40:03.919Z,10.67
2023-05-23T21:42:32.057Z,8.93
2023-05-23T21:45:00.244Z,10.50
2023-05-23T21:47:29.704Z,9.40
2023-05-23T21:49:57.855Z,9.27
2023-05-23T21:52:25.933Z,10.67
2023-05-23T21:54:54.055Z,9.37
2023-05-23T21:57:22.146Z,10.20
2023-05-23T21:59:50.259Z,10.27
2023-05-23T22:02:18.424Z,9.73
2023-05-23T22:04:47.912Z,8.87
2023-05-23T22:07:16.001Z,10.57
2023-05-23T22:09:44.109Z,10.20
2023-05-23T22:12:13.600Z,9.70
2023-05-23T22:14:41.715Z,9.20
2023-05-23T22:17:10.037Z,9.60
2023-05-23T22:19:38.195Z,10.37
2023-05-23T22:22:09.654Z,10.20
2023-05-23T22:24:37.853Z,9.90
2023-05-23T22:27:06.574Z,10.10
2023-05-23T22:29:34.878Z,9.93
2023-05-23T22:32:03.159Z,9.87
2023-05-23T22:34:31.261Z,10.80
2023-05-23T22:37:00.253Z,9.50
2023-05-23T22:39:30.016Z,10.97
2023-05-23T22:41:58.135Z,9.70
2023-05-23T22:44:26.282Z,10.17
2023-05-23T22:46:55.029Z,9.80
2023-05-23T22:49:25.242Z,9.50
2023-05-23T22:51:53.371Z,9.50
2023-05-23T22:54:21.474Z,9.53
2023-05-23T22:56:50.953Z,9.10
2023-05-23T22:59:19.018Z,10.20
2023-05-23T23:01:47.237Z,10.87
2023-05-23T23:04:15.623Z,9.40
2023-05-23T23:06:44.431Z,9.70
2023-05-23T23:09:12.595Z,9.10
2023-05-23T23:11:40.877Z,8.63
2023-05-23T23:14:10.348Z,9.33
2023-05-23T23:16:39.376Z,9.83
2023-05-23T23:19:07.510Z,9.37
2023-05-23T23:21:35.944Z,9.70
2023-05-23T23:24:04.088Z,10.30
2023-05-23T23:26:32.182Z,9.60
2023-05-23T23:29:00.307Z,8.73
2023-05-23T23:31:29.891Z,9.03
2023-05-23T23:33:58.005Z,9.37
2023-05-23T23:36:26.099Z,10.37
2023-05-23T23:38:54.230Z,9.30
2023-05-23T23:41:22.856Z,8.70
2023-05-23T23:43:50.940Z,10.17
2023-05-23T23:46:20.858Z,8.80
2023-05-23T23:48:50.547Z,9.07
2023-05-23T23:51:18.727Z,8.97
2023-05-23T23:53:48.713Z,9.10
2023-05-23T23:56:18.042Z,8.73
2023-05-23T23:58:46.115Z,8.73
